Sample Charts Sidebar
> Live data! Your data is on the web site for you to access within minutes
 
> Detailed data is easily downloaded as data file, which can be opened with Excel
 
> Charts can be customised if necessary
  Chart 1
 

(A maximum of 50 rows are displayed here. Use "Export Data" to see all rows in the date range.)
Date Collected Temp
(Celcius)
Wind-chill
(Celcius)
Wind Speed
(km/hr)
Gust
(km/hr)
Wind Direction
(degrees)
2018-09-26 10:00 12.4 12.2 2 5 210
2018-09-26 09:00 8.6 8.3 1 3 40
2018-09-26 08:00 6.4 6.2 2 5 39
2018-09-26 07:00 5.2 5.1 2 5 42
2018-09-26 06:00 4.7 4.8 1 4 43
2018-09-26 05:00 5.3 5.3 1 3 48
2018-09-26 04:00 4.8 4.6 2 3 43
2018-09-26 03:00 4.6 4.7 1 3 63
2018-09-26 02:00 5.0 5.0 2 5 35
2018-09-26 01:00 5.3 5.3 2 5 40
2018-09-26 00:00 5.6 5.6 1 2 37
2018-09-25 23:00 6.1 6.2 1 3 59
2018-09-25 22:00 6.3 6.3 1 3 41
2018-09-25 21:00 6.7 6.7 0 1 319
2018-09-25 20:00 7.8 7.9 1 3 47
2018-09-25 19:00 9.5 9.7 0 1 57
2018-09-25 18:00 11.4 11.7 1 3 236
2018-09-25 17:00 13.2 12.9 3 8 213
2018-09-25 16:00 14.2 13.5 4 8 178
2018-09-25 15:00 15.3 13.0 5 13 210
2018-09-25 14:00 14.9 13.8 4 9 222
2018-09-25 13:00 15.2 14.0 4 9 221
2018-09-25 12:00 14.1 13.6 3 8 209
2018-09-25 11:00 14.0 12.9 4 7 225
2018-09-25 10:00 11.2 11.1 1 4 199
2018-09-25 09:00 6.9 6.5 1 2 22
2018-09-25 08:00 2.4 2.3 0 1 1
2018-09-25 07:00 2.3 2.2 1 2 46
2018-09-25 06:00 2.6 2.6 1 3 56
2018-09-25 05:00 3.0 3.1 1 2 6
2018-09-25 04:00 3.3 3.3 1 3 17
2018-09-25 03:00 3.5 3.5 0 2 45
2018-09-25 02:00 3.9 4.0 0 2 24
2018-09-25 01:00 5.0 5.1 0 1 23
2018-09-25 00:00 6.2 6.3 1 1 14
2018-09-24 23:00 6.9 6.9 0 2 286
2018-09-24 22:00 7.0 7.2 0 2 298
2018-09-24 21:00 7.9 7.8 2 4 147
2018-09-24 20:00 8.6 8.7 1 4 146
2018-09-24 19:00 9.6 9.5 2 6 115
2018-09-24 18:00 10.7 10.7 2 6 86
2018-09-24 17:00 12.1 12.1 2 5 89
2018-09-24 16:00 13.0 13.0 2 5 93
2018-09-24 15:00 14.0 13.2 4 10 109
2018-09-24 14:00 14.4 12.2 6 13 128
2018-09-24 13:00 15.2 13.9 4 11 101
2018-09-24 12:00 15.5 15.1 3 8 93
2018-09-24 11:00 14.4 13.5 3 10 124
2018-09-24 10:00 12.5 12.1 2 6 125
2018-09-24 09:00 7.6 7.0 1 3 334